Time;durP1;ratioP1;P1;durP2;ratioP2;P2;SDS_P1;SDS_P2;PMS_P1;PMS_P2;Temp;Humidity;BMP_temperature;BMP_pressure;BME280_temperature;BME280_humidity;BME280_pressure;Samples;Min_cycle;Max_cycle;Signal;HPM_P1;HPM_P2
2023/04/15 00:01:51;;;;;;;4.95;3.85;;;8.80;77.60;;;;;;5099408;28;20423;-66
2023/04/15 00:04:18;;;;;;;3.80;3.50;;;8.80;77.10;;;;;;5094895;28;20615;-70
2023/04/15 00:06:51;;;;;;;4.38;3.33;;;8.80;76.60;;;;;;5106716;28;20452;-66
2023/04/15 00:09:18;;;;;;;6.50;3.90;;;8.70;77.40;;;;;;5096787;28;20472;-66
2023/04/15 00:11:45;;;;;;;5.30;4.20;;;8.70;79.20;;;;;;5105326;28;20503;-66
2023/04/15 00:14:14;;;;;;;6.28;4.00;;;8.60;80.70;;;;;;5093848;28;20420;-66
2023/04/15 00:16:41;;;;;;;6.70;4.50;;;8.60;81.40;;;;;;5107018;28;20530;-66
2023/04/15 00:19:07;;;;;;;5.72;4.50;;;8.60;83.50;;;;;;5103089;28;20436;-66
2023/04/15 00:21:35;;;;;;;5.90;4.00;;;8.50;85.30;;;;;;5099955;28;21045;-66
2023/04/15 00:24:02;;;;;;;5.28;4.00;;;8.50;87.20;;;;;;5107748;28;20510;-66
2023/04/15 00:26:29;;;;;;;5.45;4.20;;;8.50;89.50;;;;;;5105241;28;20919;-66
2023/04/15 00:28:56;;;;;;;5.95;4.20;;;8.50;90.10;;;;;;5101944;28;20451;-66
2023/04/15 00:31:24;;;;;;;5.95;4.50;;;8.50;90.40;;;;;;5094873;28;20888;-67
2023/04/15 00:33:51;;;;;;;5.00;4.50;;;8.40;90.60;;;;;;5099470;28;20469;-66
2023/04/15 00:36:18;;;;;;;4.82;4.32;;;8.40;89.50;;;;;;5103066;28;20758;-66
2023/04/15 00:38:45;;;;;;;5.32;3.97;;;8.40;88.90;;;;;;5096025;28;20428;-66
2023/04/15 00:41:12;;;;;;;6.45;4.53;;;8.40;88.40;;;;;;5098378;28;20491;-67
2023/04/15 00:43:38;;;;;;;5.55;4.20;;;8.30;88.90;;;;;;5100305;28;20422;-66
2023/04/15 00:46:07;;;;;;;5.35;4.40;;;8.30;88.80;;;;;;5103375;28;20435;-66
2023/04/15 00:48:37;;;;;;;5.20;4.60;;;8.30;89.20;;;;;;5105365;28;20447;-67
2023/04/15 00:51:03;;;;;;;5.70;4.55;;;8.30;88.10;;;;;;5108231;28;20563;-67
2023/04/15 00:53:30;;;;;;;4.90;4.40;;;8.20;87.70;;;;;;5105413;28;20427;-66
2023/04/15 00:55:57;;;;;;;7.00;4.70;;;8.20;88.40;;;;;;5105699;28;20421;-66
2023/04/15 00:58:24;;;;;;;5.10;4.13;;;8.10;88.20;;;;;;5114627;28;20427;-66
2023/04/15 01:00:53;;;;;;;4.80;4.20;;;8.10;89.20;;;;;;5113497;28;20789;-66
2023/04/15 01:03:19;;;;;;;4.85;4.35;;;8.00;88.90;;;;;;5112545;28;20859;-65
2023/04/15 01:05:48;;;;;;;5.20;4.40;;;8.00;89.10;;;;;;5118549;28;20423;-66
2023/04/15 01:08:15;;;;;;;6.00;4.40;;;8.00;88.00;;;;;;5107939;28;20531;-65
2023/04/15 01:10:42;;;;;;;5.95;4.57;;;8.00;88.00;;;;;;5111006;28;20414;-66
2023/04/15 01:13:09;;;;;;;8.25;4.60;;;7.90;87.60;;;;;;5119403;28;20521;-66
2023/04/15 01:15:36;;;;;;;5.40;4.90;;;7.90;87.50;;;;;;5125280;28;20424;-66
2023/04/15 01:18:03;;;;;;;6.70;5.15;;;7.90;88.30;;;;;;5123030;28;20439;-67
2023/04/15 01:20:29;;;;;;;4.97;4.50;;;7.90;89.70;;;;;;5120270;28;20431;-66
2023/04/15 01:22:58;;;;;;;7.03;4.40;;;7.90;89.20;;;;;;5114545;28;20433;-68
2023/04/15 01:25:32;;;;;;;6.93;4.17;;;7.90;89.10;;;;;;5121526;28;20418;-66
2023/04/15 01:27:59;;;;;;;5.63;4.10;;;7.80;89.40;;;;;;5124937;28;20478;-66
2023/04/15 01:30:26;;;;;;;5.03;4.00;;;7.80;89.00;;;;;;5112208;28;20481;-66
2023/04/15 01:32:53;;;;;;;5.55;3.90;;;7.80;88.10;;;;;;5117058;28;20420;-66
2023/04/15 01:35:20;;;;;;;4.13;3.72;;;7.70;88.70;;;;;;5098459;28;20818;-66
2023/04/15 01:37:47;;;;;;;5.30;4.18;;;7.70;89.00;;;;;;5099234;28;20448;-67
2023/04/15 01:40:14;;;;;;;4.80;3.90;;;7.70;89.10;;;;;;5101139;28;20905;-67
2023/04/15 01:42:42;;;;;;;5.38;3.95;;;7.60;88.60;;;;;;5103602;28;20505;-66
2023/04/15 01:45:09;;;;;;;5.63;4.40;;;7.50;88.50;;;;;;5099617;28;20424;-67
2023/04/15 01:47:36;;;;;;;5.22;3.90;;;7.50;89.50;;;;;;5099117;28;20435;-66
2023/04/15 01:50:03;;;;;;;5.65;4.30;;;7.50;90.30;;;;;;5102111;28;20419;-66
2023/04/15 01:52:31;;;;;;;5.18;4.43;;;7.50;90.10;;;;;;5101771;28;20428;-67
2023/04/15 01:54:57;;;;;;;5.65;3.90;;;7.50;89.80;;;;;;5098513;28;20465;-66
2023/04/15 01:57:24;;;;;;;4.10;3.70;;;7.50;89.30;;;;;;5099565;28;20423;-66
2023/04/15 01:59:52;;;;;;;4.97;4.00;;;7.50;90.00;;;;;;5109327;28;20618;-67
2023/04/15 02:02:19;;;;;;;6.13;4.32;;;7.50;90.00;;;;;;5100106;28;20767;-66
2023/04/15 02:04:45;;;;;;;5.18;4.68;;;7.60;90.40;;;;;;5100068;28;20416;-66
2023/04/15 02:07:13;;;;;;;6.00;3.90;;;7.50;89.80;;;;;;5105267;28;20530;-66
2023/04/15 02:09:39;;;;;;;5.47;4.40;;;7.50;89.70;;;;;;5100139;28;20541;-66
2023/04/15 02:12:06;;;;;;;5.40;4.03;;;7.40;90.50;;;;;;5090179;28;20437;-66
2023/04/15 02:14:33;;;;;;;5.03;3.80;;;7.40;90.50;;;;;;5092139;28;20417;-66
2023/04/15 02:17:06;;;;;;;7.60;4.38;;;7.40;90.30;;;;;;5109875;28;20431;-66
2023/04/15 02:19:32;;;;;;;5.32;4.00;;;7.40;90.80;;;;;;5092433;28;20835;-66
2023/04/15 02:22:00;;;;;;;5.20;4.10;;;7.40;90.80;;;;;;5101184;28;20432;-66
2023/04/15 02:24:28;;;;;;;4.95;4.10;;;7.40;91.00;;;;;;5094498;28;20490;-66
2023/04/15 02:26:55;;;;;;;6.07;4.80;;;7.40;91.40;;;;;;5100875;28;20443;-66
2023/04/15 02:29:22;;;;;;;6.88;4.30;;;7.40;91.50;;;;;;5108135;28;20416;-66
2023/04/15 02:31:49;;;;;;;4.45;3.97;;;7.40;91.80;;;;;;5105487;27;20488;-66
2023/04/15 02:34:17;;;;;;;4.40;4.00;;;7.40;91.90;;;;;;5110764;27;20487;-66
2023/04/15 02:36:45;;;;;;;6.20;4.50;;;7.40;92.10;;;;;;5093736;28;20449;-67
2023/04/15 02:39:13;;;;;;;5.73;4.33;;;7.30;92.00;;;;;;5093936;28;20437;-67
2023/04/15 02:41:42;;;;;;;5.50;4.15;;;7.20;92.00;;;;;;5097340;28;20420;-72
2023/04/15 02:44:09;;;;;;;4.43;3.90;;;7.20;91.80;;;;;;5095609;28;20424;-66
2023/04/15 02:46:35;;;;;;;4.90;4.40;;;7.20;91.50;;;;;;5101836;28;20727;-66
2023/04/15 02:49:02;;;;;;;5.93;4.30;;;7.20;91.50;;;;;;5099370;28;20414;-67
2023/04/15 02:51:31;;;;;;;6.22;4.18;;;7.10;91.40;;;;;;5103141;28;20517;-67
2023/04/15 02:53:58;;;;;;;4.60;4.20;;;7.10;91.40;;;;;;5097721;28;20934;-66
2023/04/15 02:56:25;;;;;;;5.53;4.20;;;7.10;91.30;;;;;;5100855;28;21007;-67
2023/04/15 02:58:54;;;;;;;5.90;4.97;;;7.10;91.40;;;;;;5095856;28;20469;-67
2023/04/15 03:01:21;;;;;;;4.50;4.10;;;7.10;91.80;;;;;;5099168;28;20539;-66
2023/04/15 03:03:48;;;;;;;6.07;4.43;;;7.00;91.70;;;;;;5118518;28;20420;-66
2023/04/15 03:06:15;;;;;;;7.93;4.40;;;7.00;92.00;;;;;;5120302;28;20431;-66
2023/04/15 03:08:43;;;;;;;5.75;4.68;;;7.00;92.20;;;;;;5115337;28;20516;-66
2023/04/15 03:11:10;;;;;;;4.55;3.97;;;7.00;92.40;;;;;;5109448;28;20429;-66
2023/04/15 03:13:38;;;;;;;5.03;4.43;;;7.00;92.00;;;;;;5097517;28;20424;-66
2023/04/15 03:16:05;;;;;;;5.60;4.43;;;7.00;92.30;;;;;;5094052;28;20429;-66
2023/04/15 03:18:32;;;;;;;4.32;3.92;;;7.00;92.80;;;;;;5101918;28;20427;-67
2023/04/15 03:20:59;;;;;;;5.07;4.50;;;6.90;92.50;;;;;;5093970;28;20514;-66
2023/04/15 03:23:26;;;;;;;6.90;4.70;;;6.90;92.80;;;;;;5098796;28;20505;-66
2023/04/15 03:25:56;;;;;;;7.97;4.40;;;6.80;93.10;;;;;;5100771;28;20426;-66
2023/04/15 03:28:22;;;;;;;5.38;4.00;;;6.80;93.60;;;;;;5105926;28;20515;-66
2023/04/15 03:30:49;;;;;;;6.30;4.40;;;6.80;92.90;;;;;;5097143;28;20424;-72
2023/04/15 03:33:16;;;;;;;6.20;4.90;;;6.80;93.10;;;;;;5095989;28;20463;-68
2023/04/15 03:35:43;;;;;;;5.07;4.38;;;6.80;93.00;;;;;;5099216;28;20429;-66
2023/04/15 03:38:10;;;;;;;5.68;3.95;;;6.80;93.40;;;;;;5095704;28;20472;-66
2023/04/15 03:40:36;;;;;;;4.75;4.35;;;6.80;93.60;;;;;;5105727;28;20428;-66
2023/04/15 03:43:04;;;;;;;6.30;4.60;;;6.80;93.70;;;;;;5092014;28;20470;-66
2023/04/15 03:45:31;;;;;;;5.15;4.68;;;6.80;93.80;;;;;;5099312;28;20443;-67
2023/04/15 03:47:58;;;;;;;7.15;4.78;;;6.70;93.80;;;;;;5096900;28;20446;-66
2023/04/15 03:50:25;;;;;;;7.05;5.10;;;6.70;94.20;;;;;;5099447;28;20741;-67
2023/04/15 03:52:51;;;;;;;5.80;4.90;;;6.70;94.40;;;;;;5096782;28;20416;-66
2023/04/15 03:55:18;;;;;;;6.70;4.90;;;6.70;94.40;;;;;;5099183;28;20437;-67
2023/04/15 03:57:45;;;;;;;7.07;5.07;;;6.70;94.50;;;;;;5103129;28;20752;-66
2023/04/15 04:00:14;;;;;;;5.20;4.70;;;6.60;94.30;;;;;;5093419;28;20421;-66
2023/04/15 04:02:41;;;;;;;6.53;5.00;;;6.60;94.30;;;;;;5094040;28;20512;-66
2023/04/15 04:05:08;;;;;;;5.95;4.95;;;6.50;93.60;;;;;;5094441;28;20448;-66
2023/04/15 04:07:35;;;;;;;6.95;5.30;;;6.50;94.00;;;;;;5099412;28;20437;-66
2023/04/15 04:10:03;;;;;;;5.90;4.70;;;6.50;94.30;;;;;;5104859;28;20482;-66
2023/04/15 04:12:30;;;;;;;6.03;5.00;;;6.50;94.20;;;;;;5101921;28;20429;-66
2023/04/15 04:14:57;;;;;;;6.00;4.70;;;6.50;93.70;;;;;;5098196;28;20778;-66
2023/04/15 04:17:25;;;;;;;7.25;5.13;;;6.40;93.40;;;;;;5101990;28;20439;-66
2023/04/15 04:19:52;;;;;;;5.53;4.80;;;6.30;93.70;;;;;;5103284;28;20424;-66
2023/04/15 04:22:22;;;;;;;7.88;5.07;;;6.30;94.30;;;;;;5092795;28;20433;-67
2023/04/15 04:24:49;;;;;;;7.10;4.80;;;6.30;94.70;;;;;;5091982;28;20479;-66
2023/04/15 04:27:16;;;;;;;7.40;4.50;;;6.30;94.80;;;;;;5100689;28;20424;-66
2023/04/15 04:29:43;;;;;;;8.10;4.97;;;6.30;94.30;;;;;;5094176;28;20430;-66
2023/04/15 04:32:10;;;;;;;5.55;4.60;;;6.30;94.50;;;;;;5094989;28;20424;-66
2023/04/15 04:34:38;;;;;;;6.00;4.72;;;6.20;94.50;;;;;;5087754;28;20732;-66
2023/04/15 04:37:06;;;;;;;5.30;4.80;;;6.20;94.90;;;;;;5094888;28;20425;-66
2023/04/15 04:39:32;;;;;;;6.57;4.17;;;6.20;94.90;;;;;;5106027;28;20946;-66
2023/04/15 04:42:00;;;;;;;7.65;4.75;;;6.20;94.80;;;;;;5102651;28;20423;-66
2023/04/15 04:44:26;;;;;;;6.40;4.80;;;6.20;94.50;;;;;;5108469;28;20427;-66
2023/04/15 04:46:53;;;;;;;5.70;4.20;;;6.20;94.80;;;;;;5099650;28;20890;-66
2023/04/15 04:49:20;;;;;;;5.97;4.70;;;6.20;95.10;;;;;;5099958;28;20455;-66
2023/04/15 04:51:48;;;;;;;5.43;4.70;;;6.10;95.00;;;;;;5107235;28;20965;-66
2023/04/15 04:54:15;;;;;;;5.30;4.80;;;6.10;94.80;;;;;;5088822;28;20656;-66
2023/04/15 04:56:42;;;;;;;6.18;4.97;;;6.00;94.90;;;;;;5106477;28;20855;-66
2023/04/15 04:59:09;;;;;;;6.60;4.80;;;6.00;95.20;;;;;;5108611;28;20806;-66
2023/04/15 05:01:36;;;;;;;5.47;4.97;;;6.00;95.30;;;;;;5101976;28;20437;-66
2023/04/15 05:04:03;;;;;;;8.52;4.90;;;6.00;95.30;;;;;;5105316;28;20461;-67
2023/04/15 05:06:31;;;;;;;5.82;4.80;;;6.00;95.20;;;;;;5105086;28;20423;-67
2023/04/15 05:09:00;;;;;;;7.22;5.15;;;5.90;95.40;;;;;;5102782;28;20705;-69
2023/04/15 05:11:27;;;;;;;7.80;4.80;;;5.90;96.20;;;;;;5099926;28;20457;-70
2023/04/15 05:13:53;;;;;;;6.50;4.85;;;5.90;96.70;;;;;;5102793;28;20493;-70
2023/04/15 05:16:20;;;;;;;5.43;4.80;;;6.00;96.70;;;;;;5102382;28;20428;-67
2023/04/15 05:18:47;;;;;;;6.70;4.70;;;6.00;97.00;;;;;;5105234;28;20428;-69
2023/04/15 05:21:14;;;;;;;7.73;5.50;;;6.00;97.00;;;;;;5097059;28;20565;-67
2023/04/15 05:23:40;;;;;;;5.38;4.80;;;6.10;97.10;;;;;;5107984;28;20439;-68
2023/04/15 05:26:08;;;;;;;5.80;5.10;;;6.10;97.00;;;;;;5108644;28;20791;-67
2023/04/15 05:28:35;;;;;;;7.93;5.10;;;6.10;96.40;;;;;;5113719;28;20420;-70
2023/04/15 05:31:02;;;;;;;7.45;5.20;;;6.10;95.70;;;;;;5097433;28;20459;-66
2023/04/15 05:33:29;;;;;;;5.45;4.95;;;6.20;95.60;;;;;;5092184;28;20878;-68
2023/04/15 05:35:56;;;;;;;6.15;4.90;;;6.20;95.70;;;;;;5104098;28;20432;-67
2023/04/15 05:38:22;;;;;;;5.93;5.10;;;6.30;95.60;;;;;;5100335;28;20781;-66
2023/04/15 05:40:49;;;;;;;6.32;4.50;;;6.40;95.50;;;;;;5099905;28;20453;-65
2023/04/15 05:43:17;;;;;;;5.97;5.00;;;6.40;95.20;;;;;;5100380;28;20428;-65
2023/04/15 05:45:44;;;;;;;5.47;4.97;;;6.50;95.00;;;;;;5103601;28;20428;-69
2023/04/15 05:48:11;;;;;;;5.75;5.13;;;6.50;94.90;;;;;;5095893;28;21265;-68
2023/04/15 05:50:40;;;;;;;6.28;5.68;;;6.60;95.20;;;;;;5096133;28;20503;-69
2023/04/15 05:53:07;;;;;;;6.22;5.50;;;6.70;95.60;;;;;;5101991;28;20463;-68
2023/04/15 05:55:34;;;;;;;5.43;4.93;;;6.80;96.00;;;;;;5094846;28;20430;-68
2023/04/15 05:58:01;;;;;;;6.50;5.80;;;6.90;96.10;;;;;;5107424;28;20423;-69
2023/04/15 06:00:30;;;;;;;6.60;5.85;;;7.00;96.10;;;;;;5106936;28;20429;-69
2023/04/15 06:02:56;;;;;;;6.20;5.60;;;7.10;94.40;;;;;;5111929;27;20453;-68
2023/04/15 06:05:23;;;;;;;6.85;5.85;;;7.10;93.60;;;;;;5116220;27;20562;-68
2023/04/15 06:07:51;;;;;;;8.00;6.37;;;7.20;93.50;;;;;;5102003;27;20562;-68
2023/04/15 06:10:18;;;;;;;6.93;6.22;;;7.30;93.20;;;;;;5098770;27;20487;-66
2023/04/15 06:12:47;;;;;;;6.80;6.20;;;7.30;92.70;;;;;;5099316;28;20552;-70
2023/04/15 06:15:14;;;;;;;6.80;6.10;;;7.40;92.70;;;;;;5102788;28;20451;-72
2023/04/15 06:17:42;;;;;;;6.10;5.50;;;7.50;92.40;;;;;;5104922;28;20577;-63
2023/04/15 06:20:10;;;;;;;6.50;5.90;;;7.60;92.20;;;;;;5106400;28;20459;-67
2023/04/15 06:22:37;;;;;;;6.68;5.90;;;7.70;92.20;;;;;;5105713;28;20432;-71
2023/04/15 06:25:04;;;;;;;7.68;6.00;;;7.80;92.00;;;;;;5099122;28;20433;-70
2023/04/15 06:27:31;;;;;;;6.28;5.68;;;7.90;91.40;;;;;;5101870;28;20551;-69
2023/04/15 06:29:58;;;;;;;6.50;5.80;;;8.00;91.30;;;;;;5093907;28;20421;-68
2023/04/15 06:32:25;;;;;;;6.20;5.60;;;8.10;91.20;;;;;;5088666;28;20864;-68
2023/04/15 06:34:53;;;;;;;6.32;5.68;;;8.20;91.00;;;;;;5097191;28;20424;-68
2023/04/15 06:37:21;;;;;;;6.90;6.30;;;8.30;90.70;;;;;;5085757;28;20550;-68
2023/04/15 06:39:47;;;;;;;8.70;5.97;;;8.50;90.60;;;;;;5101260;28;20512;-69
2023/04/15 06:42:15;;;;;;;7.20;6.50;;;8.60;90.30;;;;;;5097413;28;20511;-70
2023/04/15 06:44:41;;;;;;;6.20;5.60;;;8.70;90.00;;;;;;5091364;28;20483;-67
2023/04/15 06:47:08;;;;;;;6.47;5.88;;;8.80;88.70;;;;;;5106240;28;20511;-67
2023/04/15 06:49:35;;;;;;;8.57;6.05;;;9.00;88.50;;;;;;5092244;28;20471;-70
2023/04/15 06:52:04;;;;;;;6.68;5.95;;;9.10;86.30;;;;;;5102306;28;20435;-66
2023/04/15 06:54:30;;;;;;;7.63;5.70;;;9.20;86.00;;;;;;5094314;28;20417;-66
2023/04/15 06:56:57;;;;;;;6.63;5.93;;;9.30;85.70;;;;;;5094715;28;20890;-66
2023/04/15 06:59:24;;;;;;;6.13;5.53;;;9.40;85.50;;;;;;5085766;28;20503;-66
2023/04/15 07:01:51;;;;;;;6.60;5.90;;;9.60;84.60;;;;;;5099000;28;20496;-66
2023/04/15 07:04:18;;;;;;;6.10;5.50;;;9.70;82.90;;;;;;5092247;28;20458;-66
2023/04/15 07:06:44;;;;;;;6.60;5.90;;;9.90;82.10;;;;;;5104232;27;20775;-66
2023/04/15 07:09:13;;;;;;;6.90;6.20;;;10.00;81.60;;;;;;5103087;27;20425;-66
2023/04/15 07:11:39;;;;;;;7.50;6.80;;;10.20;80.30;;;;;;5096600;28;20505;-66
2023/04/15 07:14:06;;;;;;;8.77;7.10;;;10.30;79.50;;;;;;5101764;28;20412;-65
2023/04/15 07:16:33;;;;;;;8.02;6.93;;;10.40;78.80;;;;;;5090148;28;20437;-68
2023/04/15 07:19:00;;;;;;;7.28;6.57;;;10.60;78.40;;;;;;5089928;28;20535;-70
2023/04/15 07:21:27;;;;;;;7.87;7.07;;;10.80;76.90;;;;;;5101106;28;20432;-69
2023/04/15 07:23:54;;;;;;;8.00;7.38;;;11.10;75.80;;;;;;5095357;28;20518;-68
2023/04/15 07:26:22;;;;;;;8.00;7.30;;;11.30;74.70;;;;;;5096272;28;20931;-68
2023/04/15 07:28:49;;;;;;;7.30;6.70;;;11.40;74.60;;;;;;5099675;28;20447;-68
2023/04/15 07:31:16;;;;;;;7.72;7.13;;;11.70;74.40;;;;;;5092033;28;20658;-69
2023/04/15 07:33:43;;;;;;;8.10;7.30;;;12.00;72.70;;;;;;5094255;28;20503;-68
2023/04/15 07:36:10;;;;;;;8.43;7.72;;;12.10;71.70;;;;;;5097672;28;20809;-68
2023/04/15 07:38:36;;;;;;;7.82;7.13;;;12.30;71.00;;;;;;5086389;28;20406;-68
2023/04/15 07:41:03;;;;;;;7.90;7.20;;;12.40;70.40;;;;;;5090634;28;20454;-68
2023/04/15 07:43:32;;;;;;;7.00;6.40;;;12.50;69.80;;;;;;5093616;28;20457;-68
2023/04/15 07:45:58;;;;;;;7.05;6.53;;;12.60;69.20;;;;;;5097482;28;20925;-70
2023/04/15 07:48:25;;;;;;;6.90;6.30;;;12.80;68.60;;;;;;5092790;28;20437;-70
2023/04/15 07:50:52;;;;;;;7.18;6.47;;;12.90;68.00;;;;;;5089921;28;20455;-66
2023/04/15 07:53:19;;;;;;;6.78;6.18;;;12.90;66.70;;;;;;5090827;28;20430;-66
2023/04/15 07:55:46;;;;;;;6.50;6.00;;;13.00;66.70;;;;;;5099488;28;20908;-65
2023/04/15 07:58:12;;;;;;;7.00;6.40;;;13.00;65.60;;;;;;5097742;28;20431;-66
2023/04/15 08:00:40;;;;;;;6.60;6.00;;;13.10;64.90;;;;;;5100661;28;20664;-67
2023/04/15 08:03:07;;;;;;;7.17;6.47;;;13.10;66.90;;;;;;5093509;28;20607;-67
2023/04/15 08:05:34;;;;;;;6.63;6.03;;;13.20;66.20;;;;;;5094209;28;20463;-69
2023/04/15 08:08:01;;;;;;;6.50;5.90;;;13.30;64.60;;;;;;5092361;28;20463;-69
2023/04/15 08:10:28;;;;;;;7.30;6.65;;;13.50;64.70;;;;;;5100064;28;20730;-66
2023/04/15 08:12:56;;;;;;;6.40;5.90;;;13.70;63.80;;;;;;5095405;28;20427;-69
2023/04/15 08:15:23;;;;;;;6.50;5.90;;;13.90;61.60;;;;;;5092175;28;20505;-68
2023/04/15 08:17:51;;;;;;;6.30;5.30;;;14.00;60.40;;;;;;5091206;28;20463;-66
2023/04/15 08:20:18;;;;;;;6.20;5.60;;;14.10;59.40;;;;;;5096137;28;20521;-68
2023/04/15 08:22:46;;;;;;;4.88;4.30;;;14.20;58.80;;;;;;5102573;28;20438;-68
2023/04/15 08:25:13;;;;;;;3.80;3.50;;;14.20;58.00;;;;;;5098464;28;20428;-68
2023/04/15 08:27:40;;;;;;;3.17;2.85;;;14.20;57.20;;;;;;5097785;28;20408;-68
2023/04/15 08:30:08;;;;;;;3.30;2.50;;;14.30;56.10;;;;;;5106886;28;20898;-67
2023/04/15 08:32:35;;;;;;;2.15;1.95;;;14.50;54.40;;;;;;5097965;28;20437;-67
2023/04/15 08:35:03;;;;;;;2.65;1.90;;;14.70;51.20;;;;;;5096481;28;20447;-68
2023/04/15 08:37:30;;;;;;;3.07;1.90;;;14.80;50.20;;;;;;5096005;28;20607;-67
2023/04/15 08:39:56;;;;;;;4.17;2.00;;;15.00;50.70;;;;;;5103950;28;20426;-67
2023/04/15 08:42:35;;;;;;;2.25;1.63;;;15.20;49.80;;;;;;5105246;28;20443;-67
2023/04/15 08:45:04;;;;;;;2.80;2.00;;;15.20;49.00;;;;;;5101255;28;20432;-67
2023/04/15 08:47:33;;;;;;;2.40;1.90;;;15.30;48.20;;;;;;5097210;28;20919;-67
2023/04/15 08:50:01;;;;;;;2.30;1.80;;;15.40;47.80;;;;;;5099079;28;20426;-67
2023/04/15 08:52:31;;;;;;;2.90;2.00;;;15.50;47.80;;;;;;5096050;28;20449;-69
2023/04/15 08:55:00;;;;;;;1.90;1.60;;;15.50;47.10;;;;;;5099602;28;20619;-69
2023/04/15 08:57:28;;;;;;;1.88;1.67;;;15.50;46.80;;;;;;5100897;28;20428;-69
2023/04/15 08:59:56;;;;;;;2.03;1.80;;;15.40;46.90;;;;;;5096145;28;20453;-68
2023/04/15 09:02:25;;;;;;;2.20;1.80;;;15.30;46.80;;;;;;5098747;28;20904;-68
2023/04/15 09:04:51;;;;;;;2.45;1.75;;;15.20;48.00;;;;;;5097219;28;20439;-68
2023/04/15 09:07:18;;;;;;;1.80;1.70;;;15.20;48.20;;;;;;5101015;28;20443;-68
2023/04/15 09:09:47;;;;;;;3.53;1.90;;;15.20;48.10;;;;;;5095828;28;20422;-68
2023/04/15 09:12:15;;;;;;;3.30;1.90;;;15.20;46.90;;;;;;5097710;28;20509;-70
2023/04/15 09:14:45;;;;;;;2.70;2.20;;;15.20;47.80;;;;;;5096170;28;20433;-70
2023/04/15 09:17:11;;;;;;;2.30;1.92;;;15.30;48.10;;;;;;5094323;28;20439;-71
2023/04/15 09:19:38;;;;;;;2.60;1.80;;;15.50;47.50;;;;;;5099587;28;20429;-71
2023/04/15 09:22:05;;;;;;;3.17;1.90;;;15.80;47.00;;;;;;5093675;28;20448;-70
2023/04/15 09:24:41;;;;;;;2.40;1.90;;;16.00;46.70;;;;;;5090624;28;20428;-71
2023/04/15 09:27:10;;;;;;;2.50;2.10;;;16.10;46.20;;;;;;5101573;28;20444;-70
2023/04/15 09:29:36;;;;;;;3.80;2.10;;;16.20;45.60;;;;;;5097194;28;20902;-71
2023/04/15 09:32:11;;;;;;;2.50;2.17;;;16.20;44.90;;;;;;5096980;28;20433;-70
2023/04/15 09:34:38;;;;;;;2.13;1.80;;;16.10;45.20;;;;;;5098403;28;20425;-70
2023/04/15 09:37:05;;;;;;;2.30;2.10;;;16.00;45.10;;;;;;5101685;28;20797;-72
2023/04/15 09:39:46;;;;;;;3.83;2.30;;;16.00;45.80;;;;;;5097663;28;20432;-71
2023/04/15 09:42:16;;;;;;;2.55;2.35;;;16.10;45.60;;;;;;5099571;28;20817;-72
2023/04/15 09:44:43;;;;;;;3.67;2.30;;;16.20;45.90;;;;;;5087451;28;20430;-71
2023/04/15 09:47:09;;;;;;;2.50;2.30;;;16.20;45.60;;;;;;5105973;28;20428;-71
2023/04/15 09:49:37;;;;;;;2.50;2.20;;;16.40;46.10;;;;;;5103820;28;20444;-72
2023/04/15 09:52:04;;;;;;;2.60;2.40;;;16.60;45.40;;;;;;5086185;28;20510;-72
2023/04/15 09:54:35;;;;;;;2.97;2.50;;;16.80;44.90;;;;;;5089397;28;20436;-72
2023/04/15 09:57:06;;;;;;;2.50;2.30;;;16.90;45.20;;;;;;5100567;28;20439;-71
2023/04/15 09:59:34;;;;;;;3.60;2.10;;;17.30;44.60;;;;;;5085728;28;20463;-71
2023/04/15 10:02:04;;;;;;;2.30;2.05;;;17.90;43.90;;;;;;5095062;28;20427;-71
2023/04/15 10:04:32;;;;;;;2.20;2.00;;;18.20;42.80;;;;;;5101948;28;20812;-71
2023/04/15 10:07:01;;;;;;;2.50;1.90;;;18.60;41.70;;;;;;5091942;28;20435;-71
2023/04/15 10:09:28;;;;;;;2.60;2.30;;;18.60;40.70;;;;;;5102026;28;20599;-72
2023/04/15 10:11:55;;;;;;;2.50;2.30;;;18.40;41.50;;;;;;5105484;28;20420;-71
2023/04/15 10:14:22;;;;;;;2.50;2.30;;;18.20;41.60;;;;;;5105449;28;20412;-71
2023/04/15 10:16:50;;;;;;;2.90;2.60;;;18.10;41.90;;;;;;5095209;28;20505;-71
2023/04/15 10:19:21;;;;;;;3.10;2.80;;;17.90;42.60;;;;;;5090319;28;20412;-71
2023/04/15 10:21:49;;;;;;;4.57;3.10;;;17.70;42.70;;;;;;5107950;28;20499;-74
2023/04/15 10:24:16;;;;;;;4.03;2.90;;;17.60;43.40;;;;;;5095395;28;20790;-69
2023/04/15 10:26:44;;;;;;;3.50;3.20;;;17.90;43.90;;;;;;5101851;28;20447;-70
2023/04/15 10:29:11;;;;;;;3.40;3.10;;;18.10;43.60;;;;;;5105566;28;20447;-72
2023/04/15 10:31:38;;;;;;;3.40;3.10;;;18.30;43.50;;;;;;5093150;28;20406;-70
2023/04/15 10:34:06;;;;;;;3.30;3.00;;;18.40;42.90;;;;;;5093010;28;20411;-70
2023/04/15 10:36:33;;;;;;;3.00;2.80;;;18.40;43.40;;;;;;5105788;28;20408;-72
2023/04/15 10:39:00;;;;;;;3.22;2.92;;;18.70;42.20;;;;;;5095702;28;20443;-70
2023/04/15 10:41:29;;;;;;;3.20;3.00;;;18.60;42.50;;;;;;5094246;28;20912;-70
2023/04/15 10:44:01;;;;;;;3.40;3.10;;;18.60;43.30;;;;;;5094218;28;20414;-71
2023/04/15 10:46:36;;;;;;;3.40;3.10;;;18.60;42.80;;;;;;5085662;28;20418;-73
2023/04/15 10:49:10;;;;;;;3.60;3.30;;;18.60;42.80;;;;;;5084964;28;20718;-72
2023/04/15 10:51:40;;;;;;;3.05;2.83;;;18.50;42.50;;;;;;5084585;28;20418;-71
2023/04/15 10:54:09;;;;;;;3.40;3.10;;;18.30;43.10;;;;;;5088442;28;20416;-72
2023/04/15 10:56:36;;;;;;;3.33;3.03;;;18.20;43.20;;;;;;5087840;28;20405;-72
2023/04/15 10:59:06;;;;;;;2.90;2.70;;;18.30;43.80;;;;;;5095618;28;20790;-71
2023/04/15 11:01:51;;;;;;;2.85;2.65;;;18.30;43.20;;;;;;5096341;28;20430;-71
2023/04/15 11:04:52;;;;;;;2.90;2.50;;;18.40;42.20;;;;;;5084848;28;20425;-73
2023/04/15 11:07:48;;;;;;;2.60;2.40;;;18.30;42.40;;;;;;5097028;28;20420;-72
2023/04/15 11:10:50;;;;;;;3.00;2.70;;;18.50;41.80;;;;;;5098498;28;20508;-72
2023/04/15 11:13:20;;;;;;;2.72;2.53;;;18.50;42.20;;;;;;5091868;28;20896;-72
2023/04/15 11:15:48;;;;;;;2.60;2.40;;;18.50;42.30;;;;;;5093602;28;20493;-71
2023/04/15 11:18:16;;;;;;;3.20;2.90;;;18.50;42.20;;;;;;5097732;28;20414;-72
2023/04/15 11:20:46;;;;;;;3.13;2.50;;;18.70;41.60;;;;;;5090841;28;20427;-72
2023/04/15 11:23:14;;;;;;;2.67;2.47;;;18.90;41.90;;;;;;5094346;28;20431;-72
2023/04/15 11:25:41;;;;;;;2.33;2.13;;;19.10;41.30;;;;;;5102724;28;20739;-71
2023/04/15 11:28:08;;;;;;;2.40;2.20;;;19.00;41.70;;;;;;5100953;28;20500;-72
2023/04/15 11:30:36;;;;;;;3.17;2.88;;;18.80;41.50;;;;;;5089228;28;20422;-71
2023/04/15 11:33:05;;;;;;;2.72;2.53;;;18.60;42.20;;;;;;5094536;28;20860;-72
2023/04/15 11:35:32;;;;;;;2.77;2.57;;;18.40;42.30;;;;;;5104053;28;20423;-70
2023/04/15 11:38:03;;;;;;;3.25;2.95;;;18.30;43.50;;;;;;5095076;28;20475;-72
2023/04/15 11:40:32;;;;;;;3.30;3.03;;;18.20;43.00;;;;;;5090177;28;20745;-71
2023/04/15 11:43:10;;;;;;;3.05;2.80;;;18.10;43.90;;;;;;5085480;28;20422;-72
2023/04/15 11:45:38;;;;;;;3.50;3.20;;;17.90;44.30;;;;;;5090912;28;20408;-72
2023/04/15 11:48:06;;;;;;;3.10;2.80;;;17.70;44.30;;;;;;5091461;28;20414;-71
2023/04/15 11:50:34;;;;;;;2.22;2.03;;;17.60;45.20;;;;;;5104075;28;20431;-71
2023/04/15 11:53:04;;;;;;;2.70;2.50;;;17.50;46.10;;;;;;5099685;28;20481;-71
2023/04/15 11:55:41;;;;;;;2.70;2.50;;;17.30;45.80;;;;;;5109820;28;20416;-71
2023/04/15 11:58:12;;;;;;;2.70;2.50;;;17.20;46.70;;;;;;5109266;28;20501;-71
2023/04/15 12:00:40;;;;;;;3.10;2.80;;;17.00;47.20;;;;;;5108535;28;20404;-71
2023/04/15 12:03:28;;;;;;;3.10;2.88;;;17.00;47.30;;;;;;5107728;28;20481;-71
2023/04/15 12:06:15;;;;;;;3.80;3.50;;;17.00;47.60;;;;;;5091558;28;20459;-71
2023/04/15 12:08:57;;;;;;;3.40;3.20;;;16.90;48.00;;;;;;5108235;27;20479;-71
2023/04/15 12:11:33;;;;;;;4.00;3.80;;;16.70;49.10;;;;;;5106224;27;20468;-71
2023/04/15 12:14:05;;;;;;;4.35;4.05;;;16.70;49.00;;;;;;5118343;27;20422;-71
2023/04/15 12:16:34;;;;;;;4.78;4.47;;;16.60;49.40;;;;;;5104786;27;20402;-70
2023/04/15 12:19:01;;;;;;;4.60;4.30;;;16.60;49.40;;;;;;5118709;27;20749;-71
2023/04/15 12:21:34;;;;;;;4.35;4.10;;;16.60;49.70;;;;;;5095309;28;20430;-71
2023/04/15 12:24:05;;;;;;;4.68;4.38;;;16.50;49.60;;;;;;5101418;27;20416;-71
2023/04/15 12:26:35;;;;;;;4.80;4.45;;;16.40;50.10;;;;;;5119723;27;20422;-72
2023/04/15 12:29:03;;;;;;;4.97;4.68;;;16.30;50.50;;;;;;5108760;27;20442;-71
2023/04/15 12:31:30;;;;;;;5.70;5.30;;;16.00;51.10;;;;;;5108160;28;20412;-71
2023/04/15 12:33:58;;;;;;;6.70;6.20;;;15.70;52.80;;;;;;5105630;27;20467;-71
2023/04/15 12:36:25;;;;;;;4.90;4.60;;;15.50;53.60;;;;;;5115740;27;20422;-71
2023/04/15 12:38:51;;;;;;;5.25;4.95;;;15.50;53.90;;;;;;5114996;28;20430;-71
2023/04/15 12:41:21;;;;;;;5.90;5.50;;;15.30;53.90;;;;;;5118448;28;20474;-71
2023/04/15 12:43:47;;;;;;;5.50;5.10;;;15.20;54.50;;;;;;5092976;28;20428;-72
2023/04/15 12:46:14;;;;;;;5.57;5.18;;;15.10;55.40;;;;;;5111546;28;20453;-71
2023/04/15 12:48:41;;;;;;;6.50;5.90;;;15.00;56.00;;;;;;5097432;28;20412;-71
2023/04/15 12:51:08;;;;;;;6.65;6.15;;;14.90;56.80;;;;;;5115486;28;20430;-72
2023/04/15 12:53:35;;;;;;;7.00;6.50;;;14.90;57.60;;;;;;5102359;28;20427;-71
2023/04/15 12:56:01;;;;;;;6.68;6.25;;;14.90;57.80;;;;;;5105020;28;20416;-71
2023/04/15 12:58:29;;;;;;;6.20;5.80;;;14.70;58.60;;;;;;5091276;28;20412;-71